• Join FlightAware (Why Join?)
  • Login
  • US Flag 
10:50PM EDT


 

Airport Tracker/Info


-or-


 

Live Flight TrackerFlight Track Log ✈ N99AT ✈ 24-Jul-2013 ✈ KECP - KAPF

Flight Track Log - Related Links

Times and Time Zones

All times are in EDT time to prevent confusion due to time zone crossing. See the N99AT flight status page for this flight to view local times or setup timezone preferences in your user account.

Time Position Orientation Groundspeed Altitude Reporting Facility
EDT Latitude Longitude Course Direction KTS MPH feet Rate Location/Type
02:34PM 29.8762 -85.3121 130° Southeast  Level Estimated
02:35PM 29.8459 -85.1945 106° East  Level FlightAware Approximate
02:35PM 30.0647 -85.3886 127° Southeast 350 403 19,800  Level Jacksonville Center
02:36PM 29.8156 -85.0770 107° East  Level FlightAware Approximate
02:36PM 29.9867 -85.3147 141° Southeast 363 418 21,900  Level Jacksonville Center
02:37PM 29.7333 -84.9994 133° Southeast  Level Estimated
02:37PM 29.9089 -85.2383 140° Southeast 395 455 23,000  Level Jacksonville Center
02:38PM 29.6509 -84.9220 134° Southeast  Level Estimated
02:38PM 29.8247 -85.1550 139° Southeast 421 484 23,000  Level Jacksonville Center
02:39PM 29.5685 -84.8446 139° Southeast  Level Estimated
02:39PM 29.7261 -85.0642 141° Southeast 441 507 23,000  Level Jacksonville Center
02:40PM 29.4860 -84.7674 127° Southeast  Level Estimated
02:40PM 29.6297 -84.9689 139° Southeast 454 522 23,600  Level Jacksonville Center
02:41PM 29.5369 -84.8808 140° Southeast 454 522 26,200 2,520 Climbing Jacksonville Center
02:42PM 29.4506 -84.7981 140° Southeast 428 493 28,700 1,380 Climbing Jacksonville Center
02:43PM 29.3600 -84.7225 144° Southeast 410 472 29,000 120 Climbing Jacksonville Center
02:44PM 29.2631 -84.6372 142° Southeast 416 479 29,000 -60 Level Jacksonville Center
02:45PM 29.1597 -84.5500 144° Southeast 443 510 28,900 -60 Descending Jacksonville Center
02:46PM 29.0564 -84.4650 144° Southeast 455 524 28,900 660 Level Jacksonville Center
02:47PM 28.9553 -84.3781 143° Southeast 461 531 30,300 1,560 Climbing Jacksonville Center
02:48PM 28.7844 -84.2286 143° Southeast 465 535 33,300 1,500 Climbing Miami Center
02:49PM 28.6908 -84.1492 143° Southeast 436 502 34,600 840 Climbing Miami Center
02:50PM 28.5947 -84.0697 144° Southeast 431 496 35,000 120 Climbing Miami Center
02:51PM 28.4928 -83.9806 142° Southeast 444 511 34,900 -120 Descending Miami Center
02:52PM 28.3889 -83.8939 144° Southeast 459 528 34,800 -720 Descending Miami Center
02:53PM 28.2831 -83.7978 141° Southeast 469 540 33,500 -1,500 Descending Miami Center
02:54PM 28.1628 -83.6986 144° Southeast 483 556 31,800 -1,620 Descending Miami Center
02:55PM 28.0547 -83.6028 142° Southeast 489 563 30,300 -1,500 Descending Miami Center
02:56PM 27.9483 -83.5094 142° Southeast 494 568 28,800 -1,500 Descending Miami Center
02:57PM 27.8381 -83.4139 143° Southeast 489 563 27,400 -1,320 Descending Miami Center
02:58PM 27.7319 -83.3186 142° Southeast 489 563 26,200 -1,200 Descending Miami Center
02:59PM 27.6256 -83.2261 142° Southeast 489 563 25,000 -1,200 Descending Miami Center
03:00PM 27.5211 -83.1361 143° Southeast 484 557 23,800 -1,260 Descending Miami Center
03:01PM 27.4186 -83.0464 142° Southeast 484 557 22,500 -1,260 Descending Miami Center
03:02PM 27.3197 -82.9617 143° Southeast 474 545 21,300 -1,320 Descending Miami Center
03:03PM 27.2192 -82.8744 142° Southeast 467 537 19,900 -1,500 Descending Miami Center
03:04PM 27.1264 -82.7950 143° Southeast 452 520 18,300 -1,560 Descending Miami Center
03:05PM 27.0317 -82.7133 142° Southeast 437 503 16,800 -1,500 Descending Miami Center
03:06PM 26.9369 -82.6342 143° Southeast 432 497 15,400 -1,500 Descending Miami Center
03:07PM 26.8461 -82.5553 142° Southeast 426 490 13,900 -1,320 Descending Miami Center
03:08PM 26.7672 -82.4861 142° Southeast 408 470 12,800 -1,380 Descending Miami Center
03:09PM 26.6783 -82.4122 143° Southeast 403 464 11,200 -1,140 Descending Miami Center
03:10PM 26.5892 -82.3431 145° Southeast 403 464 10,600 -960 Descending Miami Center
03:11PM 26.5119 -82.2839 146° Southeast 368 423 9,300 -1,620 Descending Miami Center
03:12PM 26.4347 -82.2292 148° Southeast 306 352 7,400 -1,800 Descending Miami Center
03:13PM 26.3658 -82.1775 146° Southeast 295 339 5,700 -1,200 Descending Miami Center
03:14PM 26.2986 -82.1303 148° Southeast 290 334 5,000 -480 Descending Miami Center
03:15PM 26.2442 -82.0769 139° Southeast 284 327 4,800 -840 Descending Miami Center
03:16PM 26.2347 -81.9911 97° East 251 289 3,400 -900 Descending Miami Center
03:17PM 26.2561 -81.9156 72° East 249 287 3,000 -240 Descending Miami Center
03:18PM 26.2958 -81.8525 55° Northeast 238 274 3,000  Level Miami Center
03:20PM 26.1923 -81.7970 154° Southeast  Level Estimated
03:27PM 26.1524 -81.7756 154° Southeast  Level Estimated
03:28PM 26.1524 -81.7756 36° Northeast  Level Estimated
03:29PM 26.1524 -81.7756 36° Northeast  Level Estimated
03:30PM 26.1524 -81.7756 36° Northeast  Level Estimated
03:31PM 26.1524 -81.7756 36° Northeast  Level Estimated
03:32PM 26.1524 -81.7756 36° Northeast  Level Estimated